sensor_id;sensor_type;location;lat;lon;timestamp;temperature;humidity
17495;DHT22;8864;51.970;4.614;2022-12-17T00:00:10;13.90;64.80
17495;DHT22;8864;51.970;4.614;2022-12-17T00:02:56;13.90;64.90
17495;DHT22;8864;51.970;4.614;2022-12-17T00:05:40;13.90;65.00
17495;DHT22;8864;51.970;4.614;2022-12-17T00:08:24;13.90;64.90
17495;DHT22;8864;51.970;4.614;2022-12-17T00:11:10;13.90;65.00
17495;DHT22;8864;51.970;4.614;2022-12-17T00:13:54;13.90;65.00
17495;DHT22;8864;51.970;4.614;2022-12-17T00:16:39;13.90;65.00
17495;DHT22;8864;51.970;4.614;2022-12-17T00:19:23;13.90;64.90
17495;DHT22;8864;51.970;4.614;2022-12-17T00:22:08;13.90;64.90
17495;DHT22;8864;51.970;4.614;2022-12-17T00:24:52;13.90;64.90
17495;DHT22;8864;51.970;4.614;2022-12-17T00:27:37;13.90;64.90
17495;DHT22;8864;51.970;4.614;2022-12-17T00:30:22;13.90;64.80
17495;DHT22;8864;51.970;4.614;2022-12-17T00:33:06;13.90;64.80
17495;DHT22;8864;51.970;4.614;2022-12-17T00:35:51;13.80;64.80
17495;DHT22;8864;51.970;4.614;2022-12-17T00:38:36;13.80;64.70
17495;DHT22;8864;51.970;4.614;2022-12-17T00:41:20;13.80;64.70
17495;DHT22;8864;51.970;4.614;2022-12-17T00:44:06;13.80;64.60
17495;DHT22;8864;51.970;4.614;2022-12-17T00:46:51;13.80;64.70
17495;DHT22;8864;51.970;4.614;2022-12-17T00:49:35;13.80;64.60
17495;DHT22;8864;51.970;4.614;2022-12-17T00:52:20;13.80;64.60
17495;DHT22;8864;51.970;4.614;2022-12-17T00:55:04;13.80;64.60
17495;DHT22;8864;51.970;4.614;2022-12-17T00:57:51;13.80;64.60
17495;DHT22;8864;51.970;4.614;2022-12-17T01:00:38;13.80;64.60
17495;DHT22;8864;51.970;4.614;2022-12-17T01:03:22;13.80;64.60
17495;DHT22;8864;51.970;4.614;2022-12-17T01:06:07;13.80;64.60
17495;DHT22;8864;51.970;4.614;2022-12-17T01:08:52;13.80;64.60
17495;DHT22;8864;51.970;4.614;2022-12-17T01:11:36;13.80;64.60
17495;DHT22;8864;51.970;4.614;2022-12-17T01:14:20;13.80;64.60
17495;DHT22;8864;51.970;4.614;2022-12-17T01:17:05;13.80;64.60
17495;DHT22;8864;51.970;4.614;2022-12-17T01:19:50;13.80;64.60
17495;DHT22;8864;51.970;4.614;2022-12-17T01:22:34;13.80;64.60
17495;DHT22;8864;51.970;4.614;2022-12-17T01:25:18;13.80;64.60
17495;DHT22;8864;51.970;4.614;2022-12-17T01:28:03;13.80;64.50
17495;DHT22;8864;51.970;4.614;2022-12-17T01:30:47;13.80;64.50
17495;DHT22;8864;51.970;4.614;2022-12-17T01:33:33;13.80;64.50
17495;DHT22;8864;51.970;4.614;2022-12-17T01:36:17;13.80;64.50
17495;DHT22;8864;51.970;4.614;2022-12-17T01:39:01;13.80;64.50
17495;DHT22;8864;51.970;4.614;2022-12-17T01:41:46;13.80;64.50
17495;DHT22;8864;51.970;4.614;2022-12-17T01:44:46;13.80;64.50
17495;DHT22;8864;51.970;4.614;2022-12-17T01:47:33;13.80;64.50
17495;DHT22;8864;51.970;4.614;2022-12-17T01:50:20;13.80;64.50
17495;DHT22;8864;51.970;4.614;2022-12-17T01:53:07;13.80;64.50
17495;DHT22;8864;51.970;4.614;2022-12-17T01:55:52;13.80;64.50
17495;DHT22;8864;51.970;4.614;2022-12-17T01:58:38;13.80;64.50
17495;DHT22;8864;51.970;4.614;2022-12-17T02:01:23;13.80;64.40
17495;DHT22;8864;51.970;4.614;2022-12-17T02:04:08;13.80;64.40
17495;DHT22;8864;51.970;4.614;2022-12-17T02:07:00;13.70;64.30
17495;DHT22;8864;51.970;4.614;2022-12-17T02:09:51;13.80;64.30
17495;DHT22;8864;51.970;4.614;2022-12-17T02:12:41;13.70;64.30
17495;DHT22;8864;51.970;4.614;2022-12-17T02:15:29;13.70;64.30
17495;DHT22;8864;51.970;4.614;2022-12-17T02:18:21;13.70;64.30
17495;DHT22;8864;51.970;4.614;2022-12-17T02:21:09;13.70;64.30
17495;DHT22;8864;51.970;4.614;2022-12-17T02:23:59;13.70;64.30
17495;DHT22;8864;51.970;4.614;2022-12-17T02:26:51;13.70;64.30
17495;DHT22;8864;51.970;4.614;2022-12-17T02:29:40;13.70;64.20
17495;DHT22;8864;51.970;4.614;2022-12-17T02:32:27;13.70;64.20
17495;DHT22;8864;51.970;4.614;2022-12-17T02:35:13;13.60;64.20
17495;DHT22;8864;51.970;4.614;2022-12-17T02:37:58;13.70;64.20
17495;DHT22;8864;51.970;4.614;2022-12-17T02:40:44;13.70;64.20
17495;DHT22;8864;51.970;4.614;2022-12-17T02:43:32;13.70;64.20
17495;DHT22;8864;51.970;4.614;2022-12-17T02:46:17;13.70;64.10
17495;DHT22;8864;51.970;4.614;2022-12-17T02:49:02;13.70;64.10
17495;DHT22;8864;51.970;4.614;2022-12-17T02:51:47;13.70;64.10
17495;DHT22;8864;51.970;4.614;2022-12-17T02:54:32;13.70;64.10
17495;DHT22;8864;51.970;4.614;2022-12-17T02:57:17;13.70;64.10
17495;DHT22;8864;51.970;4.614;2022-12-17T03:00:04;13.70;64.10
17495;DHT22;8864;51.970;4.614;2022-12-17T03:02:48;13.70;64.10
17495;DHT22;8864;51.970;4.614;2022-12-17T03:05:33;13.70;64.10
17495;DHT22;8864;51.970;4.614;2022-12-17T03:08:17;13.70;64.10
17495;DHT22;8864;51.970;4.614;2022-12-17T03:11:01;13.70;64.00
17495;DHT22;8864;51.970;4.614;2022-12-17T03:13:45;13.70;64.00
17495;DHT22;8864;51.970;4.614;2022-12-17T03:16:31;13.70;64.00
17495;DHT22;8864;51.970;4.614;2022-12-17T03:19:15;13.70;64.00
17495;DHT22;8864;51.970;4.614;2022-12-17T03:21:59;13.70;64.00
17495;DHT22;8864;51.970;4.614;2022-12-17T03:24:52;13.70;64.00
17495;DHT22;8864;51.970;4.614;2022-12-17T03:27:36;13.70;64.00
17495;DHT22;8864;51.970;4.614;2022-12-17T03:30:21;13.70;64.00
17495;DHT22;8864;51.970;4.614;2022-12-17T03:33:08;13.60;64.00
17495;DHT22;8864;51.970;4.614;2022-12-17T03:35:52;13.70;64.00
17495;DHT22;8864;51.970;4.614;2022-12-17T03:38:37;13.70;64.00
17495;DHT22;8864;51.970;4.614;2022-12-17T03:41:21;13.70;64.00
17495;DHT22;8864;51.970;4.614;2022-12-17T03:44:06;13.70;64.00
17495;DHT22;8864;51.970;4.614;2022-12-17T03:46:59;13.70;64.00
17495;DHT22;8864;51.970;4.614;2022-12-17T03:49:45;13.70;64.00
17495;DHT22;8864;51.970;4.614;2022-12-17T03:52:38;13.70;64.00
17495;DHT22;8864;51.970;4.614;2022-12-17T03:55:22;13.70;64.00
17495;DHT22;8864;51.970;4.614;2022-12-17T03:58:07;13.70;64.00
17495;DHT22;8864;51.970;4.614;2022-12-17T04:00:51;13.70;64.00
17495;DHT22;8864;51.970;4.614;2022-12-17T04:03:35;13.70;64.00
17495;DHT22;8864;51.970;4.614;2022-12-17T04:06:21;13.70;64.00
17495;DHT22;8864;51.970;4.614;2022-12-17T04:09:05;13.70;64.00
17495;DHT22;8864;51.970;4.614;2022-12-17T04:11:49;13.70;63.90
17495;DHT22;8864;51.970;4.614;2022-12-17T04:14:33;13.70;63.90
17495;DHT22;8864;51.970;4.614;2022-12-17T04:17:17;13.70;64.00
17495;DHT22;8864;51.970;4.614;2022-12-17T04:20:02;13.70;64.00
17495;DHT22;8864;51.970;4.614;2022-12-17T04:22:48;13.70;64.00
17495;DHT22;8864;51.970;4.614;2022-12-17T04:25:32;13.60;63.90
17495;DHT22;8864;51.970;4.614;2022-12-17T04:28:16;13.70;63.90
17495;DHT22;8864;51.970;4.614;2022-12-17T04:31:01;13.70;64.00
17495;DHT22;8864;51.970;4.614;2022-12-17T04:33:45;13.70;63.90
17495;DHT22;8864;51.970;4.614;2022-12-17T04:36:29;13.60;63.90
17495;DHT22;8864;51.970;4.614;2022-12-17T04:39:15;13.60;63.90
17495;DHT22;8864;51.970;4.614;2022-12-17T04:42:07;13.60;63.90
17495;DHT22;8864;51.970;4.614;2022-12-17T04:44:51;13.60;63.90
17495;DHT22;8864;51.970;4.614;2022-12-17T04:47:36;13.60;64.00
17495;DHT22;8864;51.970;4.614;2022-12-17T04:50:20;13.60;64.00
17495;DHT22;8864;51.970;4.614;2022-12-17T04:53:05;13.60;63.90
17495;DHT22;8864;51.970;4.614;2022-12-17T04:55:53;13.60;63.90
17495;DHT22;8864;51.970;4.614;2022-12-17T04:58:37;13.60;64.00
17495;DHT22;8864;51.970;4.614;2022-12-17T05:01:21;13.60;63.90
17495;DHT22;8864;51.970;4.614;2022-12-17T05:04:06;13.60;63.90
17495;DHT22;8864;51.970;4.614;2022-12-17T05:06:50;13.60;64.00
17495;DHT22;8864;51.970;4.614;2022-12-17T05:09:35;13.60;63.90
17495;DHT22;8864;51.970;4.614;2022-12-17T05:12:32;13.60;63.90
17495;DHT22;8864;51.970;4.614;2022-12-17T05:15:17;13.60;63.90
17495;DHT22;8864;51.970;4.614;2022-12-17T05:18:04;13.60;63.90
17495;DHT22;8864;51.970;4.614;2022-12-17T05:20:50;13.60;63.90
17495;DHT22;8864;51.970;4.614;2022-12-17T05:23:34;13.60;63.80
17495;DHT22;8864;51.970;4.614;2022-12-17T05:26:23;13.60;63.90
17495;DHT22;8864;51.970;4.614;2022-12-17T05:29:09;13.60;63.80
17495;DHT22;8864;51.970;4.614;2022-12-17T05:31:53;13.60;63.80
17495;DHT22;8864;51.970;4.614;2022-12-17T05:34:38;13.60;63.70
17495;DHT22;8864;51.970;4.614;2022-12-17T05:37:22;13.60;63.70
17495;DHT22;8864;51.970;4.614;2022-12-17T05:40:08;13.60;63.70
17495;DHT22;8864;51.970;4.614;2022-12-17T05:42:54;13.50;63.60
17495;DHT22;8864;51.970;4.614;2022-12-17T05:45:39;13.60;63.70
17495;DHT22;8864;51.970;4.614;2022-12-17T05:48:23;13.60;63.70
17495;DHT22;8864;51.970;4.614;2022-12-17T05:51:08;13.60;63.60
17495;DHT22;8864;51.970;4.614;2022-12-17T05:53:52;13.60;63.70
17495;DHT22;8864;51.970;4.614;2022-12-17T05:56:37;13.50;63.60
17495;DHT22;8864;51.970;4.614;2022-12-17T05:59:21;13.50;63.60
17495;DHT22;8864;51.970;4.614;2022-12-17T06:02:07;13.60;63.60
17495;DHT22;8864;51.970;4.614;2022-12-17T06:05:04;13.60;63.70
17495;DHT22;8864;51.970;4.614;2022-12-17T06:07:48;13.60;63.60
17495;DHT22;8864;51.970;4.614;2022-12-17T06:10:33;13.50;63.50
17495;DHT22;8864;51.970;4.614;2022-12-17T06:13:17;13.50;63.50
17495;DHT22;8864;51.970;4.614;2022-12-17T06:16:01;13.60;63.50
17495;DHT22;8864;51.970;4.614;2022-12-17T06:18:46;13.60;63.60
17495;DHT22;8864;51.970;4.614;2022-12-17T06:21:30;13.60;64.30
17495;DHT22;8864;51.970;4.614;2022-12-17T06:24:15;13.50;63.50
17495;DHT22;8864;51.970;4.614;2022-12-17T06:26:59;13.50;63.50
17495;DHT22;8864;51.970;4.614;2022-12-17T06:29:43;13.60;63.60
17495;DHT22;8864;51.970;4.614;2022-12-17T06:32:27;13.60;63.70
17495;DHT22;8864;51.970;4.614;2022-12-17T06:35:13;13.60;63.90
17495;DHT22;8864;51.970;4.614;2022-12-17T06:37:58;13.60;63.90
17495;DHT22;8864;51.970;4.614;2022-12-17T06:40:43;13.60;63.90
17495;DHT22;8864;51.970;4.614;2022-12-17T06:43:24;13.60;63.90
17495;DHT22;8864;51.970;4.614;2022-12-17T06:46:08;13.60;63.90
17495;DHT22;8864;51.970;4.614;2022-12-17T06:48:52;13.60;64.00
17495;DHT22;8864;51.970;4.614;2022-12-17T06:51:38;13.60;64.00
17495;DHT22;8864;51.970;4.614;2022-12-17T06:54:22;13.60;64.00
17495;DHT22;8864;51.970;4.614;2022-12-17T06:57:07;13.60;64.10
17495;DHT22;8864;51.970;4.614;2022-12-17T06:59:51;13.60;64.20
17495;DHT22;8864;51.970;4.614;2022-12-17T07:02:35;13.60;64.20
17495;DHT22;8864;51.970;4.614;2022-12-17T07:05:19;13.60;64.20
17495;DHT22;8864;51.970;4.614;2022-12-17T07:08:05;13.50;64.10
17495;DHT22;8864;51.970;4.614;2022-12-17T07:10:49;13.60;64.50
17495;DHT22;8864;51.970;4.614;2022-12-17T07:13:33;13.60;64.20
17495;DHT22;8864;51.970;4.614;2022-12-17T07:16:18;13.60;64.20
17495;DHT22;8864;51.970;4.614;2022-12-17T07:19:02;13.60;64.20
17495;DHT22;8864;51.970;4.614;2022-12-17T07:21:46;13.60;64.20
17495;DHT22;8864;51.970;4.614;2022-12-17T07:24:32;13.60;64.30
17495;DHT22;8864;51.970;4.614;2022-12-17T07:27:28;13.60;64.20
17495;DHT22;8864;51.970;4.614;2022-12-17T07:30:12;13.60;64.30
17495;DHT22;8864;51.970;4.614;2022-12-17T07:32:58;13.60;64.20
17495;DHT22;8864;51.970;4.614;2022-12-17T07:35:42;13.50;64.20
17495;DHT22;8864;51.970;4.614;2022-12-17T07:38:27;13.60;64.30
17495;DHT22;8864;51.970;4.614;2022-12-17T07:41:12;13.60;64.40
17495;DHT22;8864;51.970;4.614;2022-12-17T07:43:57;13.60;64.50
17495;DHT22;8864;51.970;4.614;2022-12-17T07:46:41;13.60;64.50
17495;DHT22;8864;51.970;4.614;2022-12-17T07:49:25;13.60;64.50
17495;DHT22;8864;51.970;4.614;2022-12-17T07:52:10;13.50;64.50
17495;DHT22;8864;51.970;4.614;2022-12-17T07:54:54;13.60;65.30
17495;DHT22;8864;51.970;4.614;2022-12-17T07:57:39;13.60;65.10
17495;DHT22;8864;51.970;4.614;2022-12-17T08:00:23;13.60;66.00
17495;DHT22;8864;51.970;4.614;2022-12-17T08:03:07;13.60;66.20
17495;DHT22;8864;51.970;4.614;2022-12-17T08:05:51;13.60;66.00
17495;DHT22;8864;51.970;4.614;2022-12-17T08:08:36;13.60;65.90
17495;DHT22;8864;51.970;4.614;2022-12-17T08:11:20;13.60;65.90
17495;DHT22;8864;51.970;4.614;2022-12-17T08:14:06;13.60;66.30
17495;DHT22;8864;51.970;4.614;2022-12-17T08:16:50;13.60;66.30
17495;DHT22;8864;51.970;4.614;2022-12-17T08:19:34;13.60;66.30
17495;DHT22;8864;51.970;4.614;2022-12-17T08:22:18;13.60;66.20
17495;DHT22;8864;51.970;4.614;2022-12-17T08:25:03;13.60;67.00
17495;DHT22;8864;51.970;4.614;2022-12-17T08:27:47;13.60;66.10
17495;DHT22;8864;51.970;4.614;2022-12-17T08:30:33;13.60;66.00
17495;DHT22;8864;51.970;4.614;2022-12-17T08:33:17;13.60;66.00
17495;DHT22;8864;51.970;4.614;2022-12-17T08:36:02;13.60;65.90
17495;DHT22;8864;51.970;4.614;2022-12-17T08:38:46;13.60;65.90
17495;DHT22;8864;51.970;4.614;2022-12-17T08:41:31;13.60;65.80
17495;DHT22;8864;51.970;4.614;2022-12-17T08:44:15;13.60;65.70
17495;DHT22;8864;51.970;4.614;2022-12-17T08:47:01;13.60;65.70
17495;DHT22;8864;51.970;4.614;2022-12-17T08:49:45;13.60;65.60
17495;DHT22;8864;51.970;4.614;2022-12-17T08:52:29;13.60;65.60
17495;DHT22;8864;51.970;4.614;2022-12-17T08:55:13;13.60;65.60
17495;DHT22;8864;51.970;4.614;2022-12-17T08:57:58;13.60;65.40
17495;DHT22;8864;51.970;4.614;2022-12-17T09:00:44;13.60;65.40
17495;DHT22;8864;51.970;4.614;2022-12-17T09:03:29;13.60;65.40
17495;DHT22;8864;51.970;4.614;2022-12-17T09:06:14;13.60;65.40
17495;DHT22;8864;51.970;4.614;2022-12-17T09:08:58;13.60;65.30
17495;DHT22;8864;51.970;4.614;2022-12-17T09:11:42;13.60;65.30
17495;DHT22;8864;51.970;4.614;2022-12-17T09:14:27;13.60;65.30
17495;DHT22;8864;51.970;4.614;2022-12-17T09:17:11;13.60;65.40
17495;DHT22;8864;51.970;4.614;2022-12-17T09:19:57;13.60;65.30
17495;DHT22;8864;51.970;4.614;2022-12-17T09:22:41;13.60;65.20
17495;DHT22;8864;51.970;4.614;2022-12-17T09:25:25;13.60;65.20
17495;DHT22;8864;51.970;4.614;2022-12-17T09:28:10;13.60;65.20
17495;DHT22;8864;51.970;4.614;2022-12-17T09:30:57;13.60;65.10
17495;DHT22;8864;51.970;4.614;2022-12-17T09:33:42;13.60;65.10
17495;DHT22;8864;51.970;4.614;2022-12-17T09:36:28;13.60;65.20
17495;DHT22;8864;51.970;4.614;2022-12-17T09:39:13;13.60;65.20
17495;DHT22;8864;51.970;4.614;2022-12-17T09:42:01;13.60;65.30
17495;DHT22;8864;51.970;4.614;2022-12-17T09:44:52;13.60;65.30
17495;DHT22;8864;51.970;4.614;2022-12-17T09:47:45;13.60;65.30
17495;DHT22;8864;51.970;4.614;2022-12-17T09:50:34;13.60;65.40
17495;DHT22;8864;51.970;4.614;2022-12-17T09:53:23;13.60;65.40
17495;DHT22;8864;51.970;4.614;2022-12-17T09:56:11;13.60;65.40
17495;DHT22;8864;51.970;4.614;2022-12-17T09:58:55;13.60;65.40
17495;DHT22;8864;51.970;4.614;2022-12-17T10:01:40;13.60;65.40
17495;DHT22;8864;51.970;4.614;2022-12-17T10:04:31;13.70;65.40
17495;DHT22;8864;51.970;4.614;2022-12-17T10:07:19;13.70;65.40
17495;DHT22;8864;51.970;4.614;2022-12-17T10:10:13;13.70;65.50
17495;DHT22;8864;51.970;4.614;2022-12-17T10:12:58;13.70;65.50
17495;DHT22;8864;51.970;4.614;2022-12-17T10:15:42;13.70;65.50
17495;DHT22;8864;51.970;4.614;2022-12-17T10:18:28;13.70;65.60
17495;DHT22;8864;51.970;4.614;2022-12-17T10:21:12;13.70;65.50
17495;DHT22;8864;51.970;4.614;2022-12-17T10:24:04;13.70;65.60
17495;DHT22;8864;51.970;4.614;2022-12-17T10:26:50;13.70;65.60
17495;DHT22;8864;51.970;4.614;2022-12-17T10:29:34;13.70;65.60
17495;DHT22;8864;51.970;4.614;2022-12-17T10:32:21;13.70;65.60
17495;DHT22;8864;51.970;4.614;2022-12-17T10:35:08;13.70;65.60
17495;DHT22;8864;51.970;4.614;2022-12-17T10:37:52;13.80;65.70
17495;DHT22;8864;51.970;4.614;2022-12-17T10:40:37;13.80;65.70
17495;DHT22;8864;51.970;4.614;2022-12-17T10:43:28;13.80;65.70
17495;DHT22;8864;51.970;4.614;2022-12-17T10:46:22;13.80;65.70
17495;DHT22;8864;51.970;4.614;2022-12-17T10:49:13;13.80;65.80
17495;DHT22;8864;51.970;4.614;2022-12-17T10:51:59;13.80;65.80
17495;DHT22;8864;51.970;4.614;2022-12-17T10:54:55;13.80;65.90
17495;DHT22;8864;51.970;4.614;2022-12-17T10:57:41;13.80;65.90
17495;DHT22;8864;51.970;4.614;2022-12-17T11:00:30;13.80;65.90
17495;DHT22;8864;51.970;4.614;2022-12-17T11:03:37;13.80;66.00
17495;DHT22;8864;51.970;4.614;2022-12-17T11:06:25;13.80;65.90
17495;DHT22;8864;51.970;4.614;2022-12-17T11:09:17;13.80;65.90
17495;DHT22;8864;51.970;4.614;2022-12-17T11:12:12;13.80;66.00
17495;DHT22;8864;51.970;4.614;2022-12-17T11:15:02;13.80;66.00
17495;DHT22;8864;51.970;4.614;2022-12-17T11:17:48;13.90;66.00
17495;DHT22;8864;51.970;4.614;2022-12-17T11:20:43;13.80;66.00
17495;DHT22;8864;51.970;4.614;2022-12-17T11:23:30;13.90;66.10
17495;DHT22;8864;51.970;4.614;2022-12-17T11:26:16;13.90;66.10
17495;DHT22;8864;51.970;4.614;2022-12-17T11:28:58;13.90;66.20
17495;DHT22;8864;51.970;4.614;2022-12-17T11:31:54;13.90;66.20
17495;DHT22;8864;51.970;4.614;2022-12-17T11:34:56;13.90;66.10
17495;DHT22;8864;51.970;4.614;2022-12-17T11:37:50;13.90;66.10
17495;DHT22;8864;51.970;4.614;2022-12-17T11:40:40;13.90;66.20
17495;DHT22;8864;51.970;4.614;2022-12-17T11:43:31;13.90;66.60
17495;DHT22;8864;51.970;4.614;2022-12-17T11:46:28;13.90;66.20
17495;DHT22;8864;51.970;4.614;2022-12-17T11:49:22;13.90;66.20
17495;DHT22;8864;51.970;4.614;2022-12-17T11:52:14;13.90;66.10
17495;DHT22;8864;51.970;4.614;2022-12-17T11:55:14;13.90;66.20
17495;DHT22;8864;51.970;4.614;2022-12-17T11:58:03;13.90;66.00
17495;DHT22;8864;51.970;4.614;2022-12-17T12:01:03;13.90;66.10
17495;DHT22;8864;51.970;4.614;2022-12-17T12:03:57;13.90;66.00
17495;DHT22;8864;51.970;4.614;2022-12-17T12:06:53;13.90;66.10
17495;DHT22;8864;51.970;4.614;2022-12-17T12:09:48;13.90;66.10
17495;DHT22;8864;51.970;4.614;2022-12-17T12:12:43;14.00;66.20
17495;DHT22;8864;51.970;4.614;2022-12-17T12:15:37;13.90;66.00
17495;DHT22;8864;51.970;4.614;2022-12-17T12:18:30;13.90;66.00
17495;DHT22;8864;51.970;4.614;2022-12-17T12:21:32;13.90;66.00
17495;DHT22;8864;51.970;4.614;2022-12-17T12:24:39;13.90;66.10
17495;DHT22;8864;51.970;4.614;2022-12-17T12:27:36;13.90;66.20
17495;DHT22;8864;51.970;4.614;2022-12-17T12:30:26;13.90;66.00
17495;DHT22;8864;51.970;4.614;2022-12-17T12:33:21;13.90;66.00
17495;DHT22;8864;51.970;4.614;2022-12-17T12:36:11;13.90;66.00
17495;DHT22;8864;51.970;4.614;2022-12-17T12:38:58;13.90;66.10
17495;DHT22;8864;51.970;4.614;2022-12-17T12:41:47;13.90;66.00
17495;DHT22;8864;51.970;4.614;2022-12-17T12:44:40;13.90;66.00
17495;DHT22;8864;51.970;4.614;2022-12-17T12:47:35;13.90;66.10
17495;DHT22;8864;51.970;4.614;2022-12-17T12:50:28;13.90;66.10
17495;DHT22;8864;51.970;4.614;2022-12-17T12:53:13;13.90;66.10
17495;DHT22;8864;51.970;4.614;2022-12-17T12:55:58;13.90;66.10
17495;DHT22;8864;51.970;4.614;2022-12-17T12:58:42;13.90;66.10
17495;DHT22;8864;51.970;4.614;2022-12-17T13:01:36;13.90;66.50
17495;DHT22;8864;51.970;4.614;2022-12-17T13:04:28;13.90;66.20
17495;DHT22;8864;51.970;4.614;2022-12-17T13:07:21;13.90;66.20
17495;DHT22;8864;51.970;4.614;2022-12-17T13:09:49;13.90;66.20
17495;DHT22;8864;51.970;4.614;2022-12-17T13:12:22;13.90;66.20
17495;DHT22;8864;51.970;4.614;2022-12-17T13:14:53;13.90;66.20
17495;DHT22;8864;51.970;4.614;2022-12-17T13:17:35;13.90;66.20
17495;DHT22;8864;51.970;4.614;2022-12-17T13:20:28;13.90;66.20
17495;DHT22;8864;51.970;4.614;2022-12-17T13:23:15;13.90;66.20
17495;DHT22;8864;51.970;4.614;2022-12-17T13:25:42;13.90;66.10
17495;DHT22;8864;51.970;4.614;2022-12-17T13:28:25;13.90;66.10
17495;DHT22;8864;51.970;4.614;2022-12-17T13:31:00;13.90;66.20
17495;DHT22;8864;51.970;4.614;2022-12-17T13:33:33;13.90;66.10
17495;DHT22;8864;51.970;4.614;2022-12-17T13:36:05;13.90;66.00
17495;DHT22;8864;51.970;4.614;2022-12-17T13:38:42;13.90;66.00
17495;DHT22;8864;51.970;4.614;2022-12-17T13:41:13;13.90;66.00
17495;DHT22;8864;51.970;4.614;2022-12-17T13:43:43;13.90;66.00
17495;DHT22;8864;51.970;4.614;2022-12-17T13:46:19;13.90;65.90
17495;DHT22;8864;51.970;4.614;2022-12-17T13:48:56;13.90;65.90
17495;DHT22;8864;51.970;4.614;2022-12-17T13:51:24;13.90;65.80
17495;DHT22;8864;51.970;4.614;2022-12-17T13:53:53;13.90;65.80
17495;DHT22;8864;51.970;4.614;2022-12-17T13:56:23;13.90;65.70
17495;DHT22;8864;51.970;4.614;2022-12-17T13:58:51;13.90;65.70
17495;DHT22;8864;51.970;4.614;2022-12-17T14:01:18;13.90;65.70
17495;DHT22;8864;51.970;4.614;2022-12-17T14:03:52;13.90;65.60
17495;DHT22;8864;51.970;4.614;2022-12-17T14:06:20;13.90;65.60
17495;DHT22;8864;51.970;4.614;2022-12-17T14:08:50;13.90;65.50
17495;DHT22;8864;51.970;4.614;2022-12-17T14:11:18;13.90;65.40
17495;DHT22;8864;51.970;4.614;2022-12-17T14:14:03;13.90;65.30
17495;DHT22;8864;51.970;4.614;2022-12-17T14:16:34;13.90;65.30
17495;DHT22;8864;51.970;4.614;2022-12-17T14:19:02;13.90;65.30
17495;DHT22;8864;51.970;4.614;2022-12-17T14:21:29;13.90;65.30
17495;DHT22;8864;51.970;4.614;2022-12-17T14:23:57;13.90;65.30
17495;DHT22;8864;51.970;4.614;2022-12-17T14:26:24;13.90;65.30
17495;DHT22;8864;51.970;4.614;2022-12-17T14:28:52;13.90;65.20
17495;DHT22;8864;51.970;4.614;2022-12-17T14:31:21;13.90;65.10
17495;DHT22;8864;51.970;4.614;2022-12-17T14:34:00;13.90;65.00
17495;DHT22;8864;51.970;4.614;2022-12-17T14:36:33;13.90;65.00
17495;DHT22;8864;51.970;4.614;2022-12-17T14:39:03;13.80;64.80
17495;DHT22;8864;51.970;4.614;2022-12-17T14:41:37;13.90;64.70
17495;DHT22;8864;51.970;4.614;2022-12-17T14:44:24;13.90;64.80
17495;DHT22;8864;51.970;4.614;2022-12-17T14:47:04;13.80;64.60
17495;DHT22;8864;51.970;4.614;2022-12-17T14:49:32;13.90;64.60
17495;DHT22;8864;51.970;4.614;2022-12-17T14:52:11;13.90;64.60
17495;DHT22;8864;51.970;4.614;2022-12-17T14:54:44;13.80;64.60
17495;DHT22;8864;51.970;4.614;2022-12-17T14:57:18;13.80;64.40
17495;DHT22;8864;51.970;4.614;2022-12-17T14:59:46;13.80;64.30
17495;DHT22;8864;51.970;4.614;2022-12-17T15:02:19;13.80;64.30
17495;DHT22;8864;51.970;4.614;2022-12-17T15:04:49;13.80;64.30
17495;DHT22;8864;51.970;4.614;2022-12-17T15:07:22;13.80;64.20
17495;DHT22;8864;51.970;4.614;2022-12-17T15:09:50;13.80;64.20
17495;DHT22;8864;51.970;4.614;2022-12-17T15:12:17;13.80;64.00
17495;DHT22;8864;51.970;4.614;2022-12-17T15:14:44;13.80;64.00
17495;DHT22;8864;51.970;4.614;2022-12-17T15:17:12;13.80;64.00
17495;DHT22;8864;51.970;4.614;2022-12-17T15:19:39;13.80;63.90
17495;DHT22;8864;51.970;4.614;2022-12-17T15:22:10;13.80;63.90
17495;DHT22;8864;51.970;4.614;2022-12-17T15:24:40;13.80;63.90
17495;DHT22;8864;51.970;4.614;2022-12-17T15:27:10;13.80;63.80
17495;DHT22;8864;51.970;4.614;2022-12-17T15:29:37;13.80;63.70
17495;DHT22;8864;51.970;4.614;2022-12-17T15:32:04;13.80;63.70
17495;DHT22;8864;51.970;4.614;2022-12-17T15:34:31;13.80;63.70
17495;DHT22;8864;51.970;4.614;2022-12-17T15:36:58;13.80;63.60
17495;DHT22;8864;51.970;4.614;2022-12-17T15:39:25;13.70;63.50
17495;DHT22;8864;51.970;4.614;2022-12-17T15:41:53;13.80;63.60
17495;DHT22;8864;51.970;4.614;2022-12-17T15:44:37;13.80;63.60
17495;DHT22;8864;51.970;4.614;2022-12-17T15:47:04;13.80;63.60
17495;DHT22;8864;51.970;4.614;2022-12-17T15:49:31;13.70;63.60
17495;DHT22;8864;51.970;4.614;2022-12-17T15:51:58;13.70;63.60
17495;DHT22;8864;51.970;4.614;2022-12-17T15:54:25;13.70;63.60
17495;DHT22;8864;51.970;4.614;2022-12-17T15:56:54;13.70;63.60
17495;DHT22;8864;51.970;4.614;2022-12-17T15:59:21;13.70;63.60
17495;DHT22;8864;51.970;4.614;2022-12-17T16:01:48;13.70;63.70
17495;DHT22;8864;51.970;4.614;2022-12-17T16:04:15;13.70;63.80
17495;DHT22;8864;51.970;4.614;2022-12-17T16:06:42;13.80;63.60
17495;DHT22;8864;51.970;4.614;2022-12-17T16:09:09;13.80;63.40
17495;DHT22;8864;51.970;4.614;2022-12-17T16:11:35;13.80;63.40
17495;DHT22;8864;51.970;4.614;2022-12-17T16:14:04;13.80;63.50
17495;DHT22;8864;51.970;4.614;2022-12-17T16:16:31;13.80;63.60
17495;DHT22;8864;51.970;4.614;2022-12-17T16:18:58;13.80;63.60
17495;DHT22;8864;51.970;4.614;2022-12-17T16:21:26;13.80;63.60
17495;DHT22;8864;51.970;4.614;2022-12-17T16:23:53;13.80;63.70
17495;DHT22;8864;51.970;4.614;2022-12-17T16:26:20;13.80;63.70
17495;DHT22;8864;51.970;4.614;2022-12-17T16:28:47;13.70;63.70
17495;DHT22;8864;51.970;4.614;2022-12-17T16:31:16;13.70;63.70
17495;DHT22;8864;51.970;4.614;2022-12-17T16:33:43;13.70;63.70
17495;DHT22;8864;51.970;4.614;2022-12-17T16:36:14;13.70;63.80
17495;DHT22;8864;51.970;4.614;2022-12-17T16:38:43;13.70;63.90
17495;DHT22;8864;51.970;4.614;2022-12-17T16:41:10;13.70;63.80
17495;DHT22;8864;51.970;4.614;2022-12-17T16:43:38;13.70;63.80
17495;DHT22;8864;51.970;4.614;2022-12-17T16:46:05;13.70;63.80
17495;DHT22;8864;51.970;4.614;2022-12-17T16:48:49;13.70;63.80
17495;DHT22;8864;51.970;4.614;2022-12-17T16:51:18;13.70;63.90
17495;DHT22;8864;51.970;4.614;2022-12-17T16:53:45;13.70;63.90
17495;DHT22;8864;51.970;4.614;2022-12-17T16:56:15;13.70;63.90
17495;DHT22;8864;51.970;4.614;2022-12-17T16:58:42;13.70;64.00
17495;DHT22;8864;51.970;4.614;2022-12-17T17:01:09;13.70;64.00
17495;DHT22;8864;51.970;4.614;2022-12-17T17:03:38;13.70;64.00
17495;DHT22;8864;51.970;4.614;2022-12-17T17:06:07;13.70;63.90
17495;DHT22;8864;51.970;4.614;2022-12-17T17:08:35;13.70;64.00
17495;DHT22;8864;51.970;4.614;2022-12-17T17:11:10;13.70;64.00
17495;DHT22;8864;51.970;4.614;2022-12-17T17:13:37;13.70;64.00
17495;DHT22;8864;51.970;4.614;2022-12-17T17:16:05;13.70;64.00
17495;DHT22;8864;51.970;4.614;2022-12-17T17:18:33;13.70;64.00
17495;DHT22;8864;51.970;4.614;2022-12-17T17:21:21;13.70;64.00